Time;durP1;ratioP1;P1;durP2;ratioP2;P2;SDS_P1;SDS_P2;PMS_P1;PMS_P2;Temp;Humidity;BMP_temperature;BMP_pressure;BME280_temperature;BME280_humidity;BME280_pressure;Samples;Min_cycle;Max_cycle;Signal;HPM_P1;HPM_P2
2022/12/04 00:01:22;;;;;;;11.15;8.68;;;;;;;;;;5072404;28;20024;-61
2022/12/04 00:03:51;;;;;;;11.43;8.88;;;;;;;;;;5072375;28;20107;-61
2022/12/04 00:06:18;;;;;;;12.10;9.00;;;;;;;;;;5072623;28;20051;-61
2022/12/04 00:08:45;;;;;;;12.23;9.23;;;;;;;;;;5072259;28;20032;-61
2022/12/04 00:11:12;;;;;;;13.18;9.10;;;;;;;;;;5072386;28;20476;-61
2022/12/04 00:13:39;;;;;;;11.40;9.23;;;;;;;;;;5072259;28;20024;-62
2022/12/04 00:16:12;;;;;;;11.35;8.65;;;;;;;;;;5072110;28;20067;-61
2022/12/04 00:18:38;;;;;;;10.60;8.38;;;;;;;;;;5072047;28;20127;-65
2022/12/04 00:21:09;;;;;;;10.82;8.98;;;;;;;;;;5072410;28;20063;-65
2022/12/04 00:23:36;;;;;;;11.45;8.82;;;;;;;;;;5072190;28;20025;-65
2022/12/04 00:26:22;;;;;;;12.43;8.57;;;;;;;;;;5072170;28;20034;-64
2022/12/04 00:28:50;;;;;;;11.52;8.82;;;;;;;;;;5071400;28;20119;-64
2022/12/04 00:31:19;;;;;;;12.20;9.18;;;;;;;;;;5072094;28;20512;-65
2022/12/04 00:33:45;;;;;;;13.13;8.82;;;;;;;;;;5072093;28;20027;-65
2022/12/04 00:36:14;;;;;;;11.60;8.35;;;;;;;;;;5072181;28;20423;-65
2022/12/04 00:38:40;;;;;;;10.75;8.60;;;;;;;;;;5072315;28;20029;-65
2022/12/04 00:41:09;;;;;;;12.07;9.02;;;;;;;;;;5072054;28;20542;-65
2022/12/04 00:43:35;;;;;;;11.13;8.57;;;;;;;;;;5072212;28;20028;-65
2022/12/04 00:46:01;;;;;;;11.68;8.98;;;;;;;;;;5072020;28;20083;-65
2022/12/04 00:48:26;;;;;;;11.45;8.48;;;;;;;;;;5071961;28;20117;-61
2022/12/04 00:50:53;;;;;;;9.75;8.00;;;;;;;;;;5071885;28;20024;-62
2022/12/04 00:53:19;;;;;;;11.93;8.57;;;;;;;;;;5071908;28;20025;-61
2022/12/04 00:55:45;;;;;;;11.40;8.63;;;;;;;;;;5071850;28;20021;-61
2022/12/04 00:58:10;;;;;;;11.43;8.30;;;;;;;;;;5071783;28;20035;-62
2022/12/04 01:00:38;;;;;;;9.35;7.97;;;;;;;;;;5053843;28;20106;-61
2022/12/04 01:03:04;;;;;;;11.35;8.10;;;;;;;;;;5071827;28;20025;-61
2022/12/04 01:05:30;;;;;;;11.63;8.40;;;;;;;;;;5071668;28;20071;-63
2022/12/04 01:07:56;;;;;;;10.77;8.30;;;;;;;;;;5072858;28;20020;-62
2022/12/04 01:10:21;;;;;;;12.65;9.07;;;;;;;;;;5075767;28;20107;-64
2022/12/04 01:12:52;;;;;;;11.13;8.40;;;;;;;;;;5075648;28;20017;-63
2022/12/04 01:15:18;;;;;;;12.43;8.48;;;;;;;;;;5075377;28;20021;-62
2022/12/04 01:17:44;;;;;;;10.90;8.23;;;;;;;;;;5075298;28;20103;-65
2022/12/04 01:20:12;;;;;;;13.02;8.80;;;;;;;;;;5075343;28;20075;-62
2022/12/04 01:22:37;;;;;;;12.77;8.45;;;;;;;;;;5075518;28;20020;-66
2022/12/04 01:25:03;;;;;;;10.57;8.95;;;;;;;;;;5075055;28;20024;-66
2022/12/04 01:27:29;;;;;;;11.02;8.23;;;;;;;;;;5075466;28;20025;-65
2022/12/04 01:29:54;;;;;;;12.00;8.77;;;;;;;;;;5075487;28;20480;-61
2022/12/04 01:32:20;;;;;;;11.18;8.23;;;;;;;;;;5075388;28;20484;-63
2022/12/04 01:34:45;;;;;;;10.98;8.10;;;;;;;;;;5075131;28;20484;-61
2022/12/04 01:37:11;;;;;;;9.60;7.95;;;;;;;;;;5075057;28;20123;-61
2022/12/04 01:39:37;;;;;;;8.95;7.43;;;;;;;;;;5075280;28;20113;-61
2022/12/04 01:42:03;;;;;;;9.63;8.02;;;;;;;;;;5074953;28;20510;-61
2022/12/04 01:44:29;;;;;;;10.30;7.85;;;;;;;;;;5074852;28;20020;-61
2022/12/04 01:46:57;;;;;;;10.38;7.40;;;;;;;;;;5075081;28;20219;-62
2022/12/04 01:49:35;;;;;;;10.45;7.85;;;;;;;;;;5074752;28;20024;-61
2022/12/04 01:52:06;;;;;;;9.85;7.95;;;;;;;;;;5074901;28;20052;-61
2022/12/04 01:54:36;;;;;;;10.80;7.68;;;;;;;;;;5075066;28;20055;-61
2022/12/04 01:57:23;;;;;;;9.35;8.05;;;;;;;;;;5074796;28;20602;-62
2022/12/04 01:59:50;;;;;;;10.18;7.88;;;;;;;;;;5074634;28;20082;-61
2022/12/04 02:02:21;;;;;;;11.55;8.40;;;;;;;;;;5074540;28;20037;-61
2022/12/04 02:04:47;;;;;;;10.77;8.02;;;;;;;;;;5074592;28;20468;-61
2022/12/04 02:07:13;;;;;;;10.32;7.63;;;;;;;;;;5074874;28;20052;-61
2022/12/04 02:09:39;;;;;;;10.85;7.95;;;;;;;;;;5074378;28;20178;-61
2022/12/04 02:12:35;;;;;;;11.05;8.70;;;;;;;;;;5074392;28;20052;-61
2022/12/04 02:15:20;;;;;;;9.57;7.40;;;;;;;;;;5074296;28;20527;-61
2022/12/04 02:17:53;;;;;;;10.68;8.02;;;;;;;;;;5073938;28;20060;-63
2022/12/04 02:20:19;;;;;;;10.32;7.55;;;;;;;;;;5074231;28;20078;-64
2022/12/04 02:23:01;;;;;;;9.88;7.53;;;;;;;;;;5074204;28;20415;-64
2022/12/04 02:25:39;;;;;;;10.57;7.85;;;;;;;;;;5074242;28;20025;-63
2022/12/04 02:28:23;;;;;;;10.13;7.40;;;;;;;;;;5056339;28;20562;-64
2022/12/04 02:30:54;;;;;;;10.32;7.65;;;;;;;;;;5074064;28;20071;-63
2022/12/04 02:33:30;;;;;;;9.90;8.35;;;;;;;;;;5074111;28;20024;-65
2022/12/04 02:36:03;;;;;;;10.63;8.00;;;;;;;;;;5074201;28;20125;-65
2022/12/04 02:38:36;;;;;;;11.13;8.10;;;;;;;;;;5073931;28;20090;-65
2022/12/04 02:41:12;;;;;;;10.77;7.75;;;;;;;;;;5073938;28;20032;-65
2022/12/04 02:43:43;;;;;;;9.63;7.35;;;;;;;;;;5073815;28;20162;-65
2022/12/04 02:46:31;;;;;;;9.80;7.45;;;;;;;;;;5073759;28;20024;-65
2022/12/04 02:49:03;;;;;;;10.63;7.65;;;;;;;;;;5073672;28;20107;-66
2022/12/04 02:51:33;;;;;;;8.85;7.20;;;;;;;;;;5055769;28;20027;-61
2022/12/04 02:54:06;;;;;;;9.73;7.55;;;;;;;;;;5073615;28;20555;-61
2022/12/04 02:56:36;;;;;;;9.45;7.10;;;;;;;;;;5073495;28;20029;-61
2022/12/04 02:59:08;;;;;;;9.68;7.65;;;;;;;;;;5073476;28;20024;-61
2022/12/04 03:01:38;;;;;;;10.27;7.93;;;;;;;;;;5055570;28;20029;-62
2022/12/04 03:04:10;;;;;;;;;;;;;;;;;;5073930;28;20032;-61
2022/12/04 03:06:40;;;;;;;11.13;7.60;;;;;;;;;;5073271;28;19966;-61
2022/12/04 03:09:12;;;;;;;9.57;7.85;;;;;;;;;;5073418;28;20086;-62
2022/12/04 03:11:42;;;;;;;8.50;6.90;;;;;;;;;;5073471;28;20055;-64
2022/12/04 03:14:14;;;;;;;9.85;7.63;;;;;;;;;;5073184;28;20495;-65
2022/12/04 03:16:41;;;;;;;9.27;7.45;;;;;;;;;;5073327;28;20431;-67
2022/12/04 03:19:12;;;;;;;8.98;7.00;;;;;;;;;;5072786;28;20095;-65
2022/12/04 03:21:45;;;;;;;8.15;6.72;;;;;;;;;;5073283;28;20036;-65
2022/12/04 03:24:17;;;;;;;9.68;7.53;;;;;;;;;;5072957;28;20017;-65
2022/12/04 03:26:50;;;;;;;9.18;7.20;;;;;;;;;;5072884;28;20033;-61
2022/12/04 03:29:28;;;;;;;9.15;7.13;;;;;;;;;;5072938;28;20032;-60
2022/12/04 03:32:05;;;;;;;9.05;7.07;;;;;;;;;;5054317;28;20111;-62
2022/12/04 03:34:34;;;;;;;9.48;7.43;;;;;;;;;;5072810;28;20031;-61
2022/12/04 03:37:04;;;;;;;8.32;7.05;;;;;;;;;;5072905;28;20120;-65
2022/12/04 03:39:37;;;;;;;7.90;6.82;;;;;;;;;;5072853;28;20563;-64
2022/12/04 03:42:18;;;;;;;8.55;6.95;;;;;;;;;;5054737;28;20029;-64
2022/12/04 03:45:13;;;;;;;8.23;6.93;;;;;;;;;;5072764;28;20056;-65
2022/12/04 03:48:03;;;;;;;10.52;7.30;;;;;;;;;;5070139;28;20373;-66
2022/12/04 03:50:39;;;;;;;10.40;7.40;;;;;;;;;;5054723;28;20024;-65
2022/12/04 03:53:16;;;;;;;8.82;6.95;;;;;;;;;;5072996;28;20040;-66
2022/12/04 03:56:08;;;;;;;9.77;7.57;;;;;;;;;;5072827;28;20071;-65
2022/12/04 03:58:37;;;;;;;10.25;7.07;;;;;;;;;;5072594;28;20032;-65
2022/12/04 04:01:06;;;;;;;8.82;6.95;;;;;;;;;;5072488;28;20071;-65
2022/12/04 04:03:40;;;;;;;10.40;7.65;;;;;;;;;;5072396;28;20029;-65
2022/12/04 04:06:16;;;;;;;8.48;6.45;;;;;;;;;;5072662;28;20461;-66
2022/12/04 04:08:45;;;;;;;7.93;6.53;;;;;;;;;;5072429;28;20033;-65
2022/12/04 04:11:19;;;;;;;8.65;6.47;;;;;;;;;;5072352;28;20024;-64
2022/12/04 04:25:10;;;;;;;8.70;6.88;;;;;;;;;;5072586;28;20031;-62
2022/12/04 04:27:35;;;;;;;8.43;6.82;;;;;;;;;;5072275;28;20032;-63
2022/12/04 04:30:01;;;;;;;8.35;6.68;;;;;;;;;;5072186;28;20021;-61
2022/12/04 04:32:36;;;;;;;9.88;7.38;;;;;;;;;;5072427;28;20025;-65
2022/12/04 04:35:07;;;;;;;8.52;6.72;;;;;;;;;;5072115;28;20606;-65
2022/12/04 04:37:55;;;;;;;9.75;7.20;;;;;;;;;;5072324;28;20032;-65
2022/12/04 04:40:39;;;;;;;9.27;6.95;;;;;;;;;;5072127;28;20431;-61
2022/12/04 04:43:45;;;;;;;8.82;6.45;;;;;;;;;;5075206;28;20025;-61
2022/12/04 04:46:17;;;;;;;8.13;6.43;;;;;;;;;;5058253;28;20032;-61
2022/12/04 04:48:51;;;;;;;8.57;7.00;;;;;;;;;;5076041;28;20087;-61
2022/12/04 04:51:17;;;;;;;8.98;6.53;;;;;;;;;;5075934;28;20097;-65
2022/12/04 04:53:49;;;;;;;8.55;6.53;;;;;;;;;;5075874;28;20032;-63
2022/12/04 04:56:15;;;;;;;8.02;6.50;;;;;;;;;;5076060;28;20492;-63
2022/12/04 04:58:42;;;;;;;7.95;6.45;;;;;;;;;;5075777;28;20020;-63
2022/12/04 05:01:12;;;;;;;8.40;6.63;;;;;;;;;;5075751;28;20021;-65
2022/12/04 05:03:37;;;;;;;8.50;6.20;;;;;;;;;;5075725;28;20020;-65
2022/12/04 05:06:03;;;;;;;8.82;6.68;;;;;;;;;;5075696;28;20025;-62
2022/12/04 05:08:29;;;;;;;7.88;6.22;;;;;;;;;;5075600;28;20029;-62
2022/12/04 05:10:54;;;;;;;8.40;6.32;;;;;;;;;;5075556;28;20029;-66
2022/12/04 05:13:20;;;;;;;8.85;6.53;;;;;;;;;;5075512;28;20387;-64
2022/12/04 05:16:01;;;;;;;8.63;6.55;;;;;;;;;;5075489;28;20056;-64
2022/12/04 05:18:27;;;;;;;9.32;7.15;;;;;;;;;;5075250;28;20049;-65
2022/12/04 05:20:53;;;;;;;8.23;6.38;;;;;;;;;;5075614;28;20387;-65
2022/12/04 05:23:19;;;;;;;7.22;6.45;;;;;;;;;;5075309;28;20033;-61
2022/12/04 05:25:45;;;;;;;7.80;6.50;;;;;;;;;;5075381;28;20050;-61
2022/12/04 05:28:10;;;;;;;7.60;6.28;;;;;;;;;;5075164;28;20037;-61
2022/12/04 05:30:36;;;;;;;8.55;6.45;;;;;;;;;;5075542;28;20032;-61
2022/12/04 05:33:01;;;;;;;7.53;6.10;;;;;;;;;;5075160;28;20103;-61
2022/12/04 05:35:27;;;;;;;7.57;5.70;;;;;;;;;;5074971;28;20021;-61
2022/12/04 05:37:52;;;;;;;8.25;6.35;;;;;;;;;;5075037;28;20119;-61
2022/12/04 05:40:18;;;;;;;10.32;6.93;;;;;;;;;;5075111;28;20020;-61
2022/12/04 05:42:44;;;;;;;7.70;6.43;;;;;;;;;;5074887;28;20357;-61
2022/12/04 05:45:10;;;;;;;7.65;6.28;;;;;;;;;;5075300;28;20024;-61
2022/12/04 05:47:43;;;;;;;7.75;6.28;;;;;;;;;;5074866;28;20550;-61
2022/12/04 05:50:12;;;;;;;8.13;6.60;;;;;;;;;;5074843;28;20025;-61
2022/12/04 05:52:38;;;;;;;7.78;6.00;;;;;;;;;;5056865;28;20125;-62
2022/12/04 05:55:04;;;;;;;7.47;6.38;;;;;;;;;;5074134;28;20104;-65
2022/12/04 05:57:29;;;;;;;7.38;5.72;;;;;;;;;;5074599;28;20500;-66
2022/12/04 05:59:55;;;;;;;7.13;5.78;;;;;;;;;;5074979;28;20036;-65
2022/12/04 06:02:21;;;;;;;7.63;5.95;;;;;;;;;;5074888;28;20503;-65
2022/12/04 06:04:46;;;;;;;8.60;6.10;;;;;;;;;;5074637;28;20076;-63
2022/12/04 06:07:12;;;;;;;7.30;6.15;;;;;;;;;;5074439;28;20029;-61
2022/12/04 06:09:37;;;;;;;8.05;6.00;;;;;;;;;;5074802;28;20103;-61
2022/12/04 06:12:03;;;;;;;8.80;6.22;;;;;;;;;;5056565;28;20504;-61
2022/12/04 06:14:29;;;;;;;7.43;5.68;;;;;;;;;;5074438;28;20439;-61
2022/12/04 06:16:54;;;;;;;7.55;5.97;;;;;;;;;;5074471;28;20028;-61
2022/12/04 06:19:21;;;;;;;7.50;6.07;;;;;;;;;;5074127;28;20388;-61
2022/12/04 06:21:50;;;;;;;7.63;5.78;;;;;;;;;;5074181;28;20023;-66
2022/12/04 06:24:18;;;;;;;8.90;6.20;;;;;;;;;;5056446;28;20474;-66
2022/12/04 06:26:44;;;;;;;6.32;5.72;;;;;;;;;;5074135;28;20103;-65
2022/12/04 06:29:11;;;;;;;7.60;5.95;;;;;;;;;;5074160;28;20029;-65
2022/12/04 06:31:41;;;;;;;6.80;5.75;;;;;;;;;;5074071;28;20345;-65
2022/12/04 06:34:07;;;;;;;7.75;5.85;;;;;;;;;;5074087;28;20032;-66
2022/12/04 06:36:34;;;;;;;6.93;6.10;;;;;;;;;;5073690;28;20376;-64
2022/12/04 06:39:00;;;;;;;7.15;5.70;;;;;;;;;;5073946;28;20035;-65
2022/12/04 06:41:27;;;;;;;7.20;5.95;;;;;;;;;;5073850;28;20060;-65
2022/12/04 06:43:53;;;;;;;7.22;5.72;;;;;;;;;;5073848;28;20025;-65
2022/12/04 06:46:21;;;;;;;7.10;5.68;;;;;;;;;;5073779;28;20463;-61
2022/12/04 06:48:47;;;;;;;9.00;6.13;;;;;;;;;;5073768;28;20033;-61
2022/12/04 06:51:21;;;;;;;6.75;5.70;;;;;;;;;;5073771;28;20100;-61
2022/12/04 06:53:47;;;;;;;7.80;6.03;;;;;;;;;;5073690;28;20028;-62
2022/12/04 06:56:16;;;;;;;7.55;5.63;;;;;;;;;;5073627;28;20389;-61
2022/12/04 06:58:47;;;;;;;8.50;6.20;;;;;;;;;;5073906;28;20042;-62
2022/12/04 07:01:15;;;;;;;7.15;5.35;;;;;;;;;;5073422;28;20035;-61
2022/12/04 07:03:41;;;;;;;8.00;5.80;;;;;;;;;;5073545;28;20409;-64
2022/12/04 07:06:28;;;;;;;7.80;6.07;;;;;;;;;;5072715;28;20047;-64
2022/12/04 07:08:57;;;;;;;7.07;5.72;;;;;;;;;;5073332;28;20036;-62
2022/12/04 07:11:23;;;;;;;7.60;5.70;;;;;;;;;;5073303;28;20032;-62
2022/12/04 07:13:50;;;;;;;8.05;5.68;;;;;;;;;;5073165;28;20033;-64
2022/12/04 07:16:18;;;;;;;6.97;5.30;;;;;;;;;;5073163;28;20025;-63
2022/12/04 07:18:44;;;;;;;7.32;5.78;;;;;;;;;;5073069;28;20060;-62
2022/12/04 07:21:16;;;;;;;6.43;5.32;;;;;;;;;;5073082;28;20104;-65
2022/12/04 07:23:43;;;;;;;7.63;5.88;;;;;;;;;;5073091;28;20480;-64
2022/12/04 07:26:11;;;;;;;7.13;5.85;;;;;;;;;;5072977;28;20031;-65
2022/12/04 07:28:37;;;;;;;7.05;5.68;;;;;;;;;;5072859;28;20138;-64
2022/12/04 07:31:12;;;;;;;7.60;5.75;;;;;;;;;;5072954;28;20096;-65
2022/12/04 07:33:38;;;;;;;7.57;5.50;;;;;;;;;;5073118;28;20028;-65
2022/12/04 07:36:06;;;;;;;7.32;5.57;;;;;;;;;;5072833;28;20522;-65
2022/12/04 07:38:33;;;;;;;7.50;5.63;;;;;;;;;;5073050;28;20060;-65
2022/12/04 07:41:00;;;;;;;6.88;5.57;;;;;;;;;;5072825;28;20017;-65
2022/12/04 07:43:28;;;;;;;7.00;5.70;;;;;;;;;;5072914;28;20055;-64
2022/12/04 07:45:53;;;;;;;6.10;5.38;;;;;;;;;;5072675;28;20081;-64
2022/12/04 07:48:19;;;;;;;6.47;5.50;;;;;;;;;;5072550;28;20036;-62
2022/12/04 07:50:45;;;;;;;6.88;5.38;;;;;;;;;;5072948;28;20082;-61
2022/12/04 07:53:11;;;;;;;6.22;5.18;;;;;;;;;;5072376;28;20029;-63
2022/12/04 07:55:36;;;;;;;6.75;5.60;;;;;;;;;;5072489;28;20035;-65
2022/12/04 07:58:02;;;;;;;6.85;5.55;;;;;;;;;;5072275;28;20043;-63
2022/12/04 08:00:28;;;;;;;6.70;5.80;;;;;;;;;;5072469;28;20078;-61
2022/12/04 08:02:53;;;;;;;5.82;5.22;;;;;;;;;;5072412;28;20572;-63
2022/12/04 08:05:19;;;;;;;7.80;5.85;;;;;;;;;;5072392;28;20091;-62
2022/12/04 08:07:45;;;;;;;7.20;5.93;;;;;;;;;;5072439;28;20024;-64
2022/12/04 08:10:11;;;;;;;7.93;5.57;;;;;;;;;;5072602;28;20073;-64
2022/12/04 08:12:36;;;;;;;6.15;5.40;;;;;;;;;;5072159;28;20064;-64
2022/12/04 08:15:02;;;;;;;7.63;5.82;;;;;;;;;;5072414;28;20497;-63
2022/12/04 08:17:28;;;;;;;7.50;5.78;;;;;;;;;;5071521;28;20039;-65
2022/12/04 08:19:53;;;;;;;6.18;5.30;;;;;;;;;;5072107;28;20040;-65
2022/12/04 08:22:19;;;;;;;6.68;5.65;;;;;;;;;;5072075;28;20025;-64
2022/12/04 08:24:45;;;;;;;6.63;5.55;;;;;;;;;;5072230;28;20055;-65
2022/12/04 08:27:10;;;;;;;7.53;5.05;;;;;;;;;;5072019;28;20058;-65
2022/12/04 08:29:36;;;;;;;6.70;5.63;;;;;;;;;;5072418;28;20024;-64
2022/12/04 08:32:02;;;;;;;6.30;5.45;;;;;;;;;;5072105;28;20495;-62
2022/12/04 08:34:27;;;;;;;6.05;5.38;;;;;;;;;;5071911;28;20104;-61
2022/12/04 08:36:53;;;;;;;6.65;5.20;;;;;;;;;;5071953;28;20025;-62
2022/12/04 08:39:19;;;;;;;5.85;5.10;;;;;;;;;;5072104;28;20104;-62
2022/12/04 08:41:44;;;;;;;6.05;5.05;;;;;;;;;;5072051;28;20500;-65
2022/12/04 08:44:11;;;;;;;6.80;5.07;;;;;;;;;;5072022;28;20016;-64
2022/12/04 08:46:37;;;;;;;6.57;5.18;;;;;;;;;;5071810;28;20028;-62
2022/12/04 08:49:03;;;;;;;7.22;5.97;;;;;;;;;;5071983;28;20028;-61
2022/12/04 08:51:31;;;;;;;7.10;5.07;;;;;;;;;;5071985;28;20104;-61
2022/12/04 08:54:01;;;;;;;5.70;5.00;;;;;;;;;;5071930;28;20074;-66
2022/12/04 08:56:29;;;;;;;6.65;5.32;;;;;;;;;;5071802;28;20021;-62
2022/12/04 08:58:56;;;;;;;6.32;5.28;;;;;;;;;;5071904;28;20031;-65
2022/12/04 09:01:22;;;;;;;6.47;5.18;;;;;;;;;;5071825;28;20016;-66
2022/12/04 09:03:47;;;;;;;7.50;5.43;;;;;;;;;;5071832;28;20021;-62
2022/12/04 09:06:14;;;;;;;6.43;5.28;;;;;;;;;;5071795;28;20107;-61
2022/12/04 09:08:40;;;;;;;6.50;5.38;;;;;;;;;;5072018;28;20066;-62
2022/12/04 09:11:15;;;;;;;6.68;5.30;;;;;;;;;;5071755;28;20036;-61
2022/12/04 09:13:41;;;;;;;6.47;5.15;;;;;;;;;;5071827;28;20059;-62
2022/12/04 09:16:11;;;;;;;6.32;5.25;;;;;;;;;;5068265;28;20053;-61
2022/12/04 09:18:37;;;;;;;6.05;5.10;;;;;;;;;;5062761;28;20534;-61
2022/12/04 09:21:06;;;;;;;5.88;4.97;;;;;;;;;;5071943;28;20035;-60
2022/12/04 09:23:33;;;;;;;6.43;5.03;;;;;;;;;;5071567;28;20078;-60
2022/12/04 09:25:59;;;;;;;5.85;4.90;;;;;;;;;;5071588;28;20353;-61
2022/12/04 09:28:24;;;;;;;6.88;5.47;;;;;;;;;;5072181;28;20090;-61
2022/12/04 09:30:57;;;;;;;6.43;5.10;;;;;;;;;;5075147;28;20020;-61
2022/12/04 09:33:23;;;;;;;5.93;4.88;;;;;;;;;;5075136;28;20020;-62
2022/12/04 09:35:49;;;;;;;5.28;4.75;;;;;;;;;;5074983;28;20074;-64
2022/12/04 09:38:15;;;;;;;7.18;5.40;;;;;;;;;;5074934;28;20039;-67
2022/12/04 09:40:54;;;;;;;5.57;4.90;;;;;;;;;;5074981;28;20033;-66
2022/12/04 09:43:32;;;;;;;6.00;5.18;;;;;;;;;;5074815;28;20032;-65
2022/12/04 09:46:08;;;;;;;4.95;4.43;;;;;;;;;;5075306;28;20035;-65
2022/12/04 09:48:39;;;;;;;6.57;5.15;;;;;;;;;;5074221;28;20403;-62
2022/12/04 09:51:06;;;;;;;5.78;4.70;;;;;;;;;;5073303;28;20016;-65
2022/12/04 09:53:47;;;;;;;6.47;5.30;;;;;;;;;;5073979;28;20020;-66
2022/12/04 09:56:20;;;;;;;5.82;5.13;;;;;;;;;;5072960;28;20044;-65
2022/12/04 09:58:52;;;;;;;6.82;5.32;;;;;;;;;;5073200;28;20028;-65
2022/12/04 10:01:24;;;;;;;6.15;5.07;;;;;;;;;;5073569;28;20024;-66
2022/12/04 10:03:52;;;;;;;6.30;5.10;;;;;;;;;;5072348;28;20013;-64
2022/12/04 10:06:32;;;;;;;5.25;4.47;;;;;;;;;;5073671;28;20411;-66
2022/12/04 10:09:11;;;;;;;6.50;5.22;;;;;;;;;;5073246;28;20021;-66
2022/12/04 10:12:05;;;;;;;5.70;5.00;;;;;;;;;;5072689;28;20113;-65
2022/12/04 10:14:49;;;;;;;5.55;4.50;;;;;;;;;;5059466;28;20079;-66
2022/12/04 10:17:36;;;;;;;5.43;4.65;;;;;;;;;;5076705;28;20059;-65
2022/12/04 10:20:18;;;;;;;7.30;5.32;;;;;;;;;;5080771;28;20025;-65
2022/12/04 10:23:18;;;;;;;6.95;5.35;;;;;;;;;;5063511;28;20020;-65
2022/12/04 10:25:43;;;;;;;6.05;4.82;;;;;;;;;;5054249;28;20028;-64
2022/12/04 10:28:39;;;;;;;6.10;4.68;;;;;;;;;;5054166;28;20025;-67
2022/12/04 10:31:10;;;;;;;7.40;4.88;;;;;;;;;;5052608;28;20025;-67
2022/12/04 10:33:40;;;;;;;6.28;4.97;;;;;;;;;;5052876;28;20043;-66
2022/12/04 10:36:09;;;;;;;;;;;;;;;;;;5057520;28;20638;-66
2022/12/04 10:38:55;;;;;;;7.82;5.00;;;;;;;;;;5054399;28;20041;-63
2022/12/04 10:41:37;;;;;;;6.93;5.07;;;;;;;;;;5072188;28;20036;-68
2022/12/04 10:44:03;;;;;;;6.15;4.88;;;;;;;;;;5072590;28;20035;-65
2022/12/04 10:46:33;;;;;;;6.75;4.93;;;;;;;;;;5070961;28;20380;-62
2022/12/04 10:49:03;;;;;;;7.20;5.43;;;;;;;;;;5072094;28;20028;-64
2022/12/04 10:51:32;;;;;;;;;;;;;;;;;;5054748;28;20033;-62
2022/12/04 10:53:58;;;;;;;6.60;5.20;;;;;;;;;;5072014;28;20380;-65
2022/12/04 10:56:25;;;;;;;7.03;4.78;;;;;;;;;;5071840;28;20039;-67
2022/12/04 10:58:59;;;;;;;5.97;4.80;;;;;;;;;;5071939;28;20151;-66
2022/12/04 11:01:27;;;;;;;7.50;4.97;;;;;;;;;;5071994;28;20085;-65
2022/12/04 11:04:01;;;;;;;5.70;4.43;;;;;;;;;;5071757;28;20031;-65
2022/12/04 11:06:28;;;;;;;7.20;5.25;;;;;;;;;;5071832;28;20506;-65
2022/12/04 11:08:55;;;;;;;6.45;4.90;;;;;;;;;;5071818;28;20024;-66
2022/12/04 11:11:31;;;;;;;8.63;4.80;;;;;;;;;;5071637;28;20062;-65
2022/12/04 11:14:03;;;;;;;7.57;5.40;;;;;;;;;;5071545;28;20032;-62
2022/12/04 11:16:39;;;;;;;10.20;5.47;;;;;;;;;;5071480;28;20064;-66
2022/12/04 11:19:37;;;;;;;5.95;4.72;;;;;;;;;;5071077;28;20041;-66
2022/12/04 11:22:16;;;;;;;6.13;4.32;;;;;;;;;;5026528;28;20083;-65
2022/12/04 11:24:47;;;;;;;8.73;5.40;;;;;;;;;;5072022;28;20023;-61
2022/12/04 11:27:33;;;;;;;6.50;4.85;;;;;;;;;;5073046;28;20016;-66
2022/12/04 11:30:09;;;;;;;5.55;4.90;;;;;;;;;;5073119;28;20025;-62
2022/12/04 11:32:35;;;;;;;6.30;4.65;;;;;;;;;;5073110;28;20108;-61
2022/12/04 11:35:12;;;;;;;6.28;4.80;;;;;;;;;;5072924;28;20032;-65
2022/12/04 11:37:37;;;;;;;6.28;4.60;;;;;;;;;;5072679;28;20614;-67
2022/12/04 11:40:13;;;;;;;6.13;4.75;;;;;;;;;;5072708;28;20028;-66
2022/12/04 11:42:39;;;;;;;9.68;4.72;;;;;;;;;;5072765;28;20028;-66
2022/12/04 11:45:22;;;;;;;5.32;4.32;;;;;;;;;;5070977;28;20036;-65
2022/12/04 11:47:57;;;;;;;6.88;4.50;;;;;;;;;;5072677;28;20030;-64
2022/12/04 11:50:35;;;;;;;5.55;4.53;;;;;;;;;;5072576;28;20048;-64
2022/12/04 11:53:04;;;;;;;5.50;4.40;;;;;;;;;;5072029;28;20105;-67
2022/12/04 11:55:51;;;;;;;4.93;3.90;;;;;;;;;;5072583;28;20020;-65
2022/12/04 11:58:39;;;;;;;5.18;4.07;;;;;;;;;;5054465;28;20024;-66
2022/12/04 12:01:33;;;;;;;5.63;4.18;;;;;;;;;;5072490;28;20086;-62
2022/12/04 12:04:01;;;;;;;5.00;4.07;;;;;;;;;;5072431;28;20070;-63
2022/12/04 12:06:39;;;;;;;5.32;3.90;;;;;;;;;;5072411;28;20021;-63
2022/12/04 12:09:50;;;;;;;5.07;4.00;;;;;;;;;;5072635;28;20028;-63
2022/12/04 12:12:56;;;;;;;5.88;3.83;;;;;;;;;;5028346;28;20049;-63
2022/12/04 12:15:38;;;;;;;6.55;3.90;;;;;;;;;;5032278;28;20040;-61
2022/12/04 12:18:21;;;;;;;5.55;4.30;;;;;;;;;;5071997;28;20036;-61
2022/12/04 12:21:14;;;;;;;4.32;3.90;;;;;;;;;;5072573;28;20036;-65
2022/12/04 12:23:46;;;;;;;8.88;4.35;;;;;;;;;;5072367;28;20020;-66
2022/12/04 12:26:13;;;;;;;4.53;4.03;;;;;;;;;;5072383;28;20126;-66
2022/12/04 12:29:16;;;;;;;5.93;4.00;;;;;;;;;;5072455;28;20025;-67
2022/12/04 12:31:59;;;;;;;7.22;4.00;;;;;;;;;;5030080;28;20500;-63
2022/12/04 12:34:30;;;;;;;5.25;3.72;;;;;;;;;;5072235;28;20028;-62
2022/12/04 12:36:59;;;;;;;5.07;3.83;;;;;;;;;;5072231;28;20028;-63
2022/12/04 12:39:49;;;;;;;5.55;4.00;;;;;;;;;;5072246;28;20472;-63
2022/12/04 12:42:23;;;;;;;5.47;3.60;;;;;;;;;;5072089;28;20082;-62
2022/12/04 12:44:49;;;;;;;4.90;3.85;;;;;;;;;;5072431;28;20388;-62
2022/12/04 12:47:28;;;;;;;4.65;3.80;;;;;;;;;;5071960;28;20025;-62
2022/12/04 12:50:23;;;;;;;4.97;4.03;;;;;;;;;;5054081;28;20102;-62
2022/12/04 12:52:54;;;;;;;3.78;3.38;;;;;;;;;;5071344;28;20396;-62
2022/12/04 12:55:38;;;;;;;4.72;3.30;;;;;;;;;;5071980;28;20028;-62
2022/12/04 12:58:12;;;;;;;5.07;4.20;;;;;;;;;;5072167;28;20500;-62
2022/12/04 13:01:04;;;;;;;6.15;4.43;;;;;;;;;;5071981;28;20384;-63
2022/12/04 13:03:48;;;;;;;4.15;3.75;;;;;;;;;;5062671;28;20032;-63
2022/12/04 13:06:18;;;;;;;6.28;4.07;;;;;;;;;;5072691;28;20451;-62
2022/12/04 13:08:51;;;;;;;4.57;3.97;;;;;;;;;;5073137;28;20361;-63
2022/12/04 13:11:20;;;;;;;8.00;4.18;;;;;;;;;;5072144;28;20021;-63
2022/12/04 13:13:52;;;;;;;7.80;4.15;;;;;;;;;;5075360;28;20032;-63
2022/12/04 13:16:41;;;;;;;4.97;4.20;;;;;;;;;;5075506;28;20055;-63
2022/12/04 13:19:21;;;;;;;6.55;4.75;;;;;;;;;;5075258;28;20143;-63
2022/12/04 13:22:22;;;;;;;7.00;4.30;;;;;;;;;;5075538;28;20043;-63
2022/12/04 13:24:47;;;;;;;5.18;4.15;;;;;;;;;;5075378;28;20028;-63
2022/12/04 13:27:19;;;;;;;5.10;3.97;;;;;;;;;;5075449;28;20028;-64
2022/12/04 13:29:56;;;;;;;6.00;4.03;;;;;;;;;;5074484;28;20025;-65
2022/12/04 13:32:31;;;;;;;7.53;4.55;;;;;;;;;;5073726;28;20665;-63
2022/12/04 13:35:06;;;;;;;9.40;4.22;;;;;;;;;;5073829;28;20035;-63
2022/12/04 13:38:05;;;;;;;6.53;4.55;;;;;;;;;;5073986;28;20107;-63
2022/12/04 13:40:43;;;;;;;5.93;4.23;;;;;;;;;;5073833;28;20162;-62
2022/12/04 13:43:15;;;;;;;5.60;4.10;;;;;;;;;;5073186;28;20036;-62
2022/12/04 13:45:43;;;;;;;7.50;4.15;;;;;;;;;;5072924;28;20028;-62
2022/12/04 13:48:09;;;;;;;4.43;3.80;;;;;;;;;;5073417;28;20035;-62
2022/12/04 13:50:37;;;;;;;4.03;3.63;;;;;;;;;;5073212;28;20396;-62
2022/12/04 13:53:03;;;;;;;5.80;4.13;;;;;;;;;;5073285;28;20028;-62
2022/12/04 13:55:35;;;;;;;4.85;4.20;;;;;;;;;;5073178;28;20032;-60
2022/12/04 13:58:09;;;;;;;6.47;4.10;;;;;;;;;;5073540;28;20104;-60
2022/12/04 14:00:38;;;;;;;4.38;3.65;;;;;;;;;;5073019;28;20489;-60
2022/12/04 14:03:18;;;;;;;4.90;3.70;;;;;;;;;;5073125;28;20036;-60
2022/12/04 14:05:44;;;;;;;7.85;3.85;;;;;;;;;;5073284;28;20047;-61
2022/12/04 14:08:18;;;;;;;4.55;3.53;;;;;;;;;;5073010;28;20598;-60
2022/12/04 14:11:11;;;;;;;5.38;4.10;;;;;;;;;;5073189;28;20147;-62
2022/12/04 14:13:47;;;;;;;5.55;3.90;;;;;;;;;;5072918;28;20086;-62
2022/12/04 14:16:28;;;;;;;6.65;3.75;;;;;;;;;;5072392;28;20024;-63
2022/12/04 14:19:04;;;;;;;5.68;4.35;;;;;;;;;;5072732;28;20154;-62
2022/12/04 14:21:41;;;;;;;7.10;4.00;;;;;;;;;;5072790;28;20032;-63
2022/12/04 14:24:37;;;;;;;5.65;3.95;;;;;;;;;;5072957;28;20035;-63
2022/12/04 14:27:35;;;;;;;9.32;3.78;;;;;;;;;;5056107;28;20040;-60
2022/12/04 14:30:01;;;;;;;5.32;3.42;;;;;;;;;;5072463;28;20028;-61
2022/12/04 14:32:33;;;;;;;5.97;3.63;;;;;;;;;;5072550;28;20035;-61
2022/12/04 14:34:59;;;;;;;5.72;3.95;;;;;;;;;;5072621;28;20025;-60
2022/12/04 14:37:31;;;;;;;4.50;3.55;;;;;;;;;;5072360;28;20476;-60
2022/12/04 14:39:58;;;;;;;4.85;3.80;;;;;;;;;;5072383;28;20441;-60
2022/12/04 14:42:36;;;;;;;5.07;3.92;;;;;;;;;;5072373;28;20024;-61
2022/12/04 14:45:14;;;;;;;5.70;3.85;;;;;;;;;;5054384;28;20025;-62
2022/12/04 14:48:16;;;;;;;5.45;3.97;;;;;;;;;;5072294;28;20481;-62
2022/12/04 14:51:04;;;;;;;5.75;3.85;;;;;;;;;;5029367;28;20041;-62
2022/12/04 14:53:51;;;;;;;6.25;3.72;;;;;;;;;;5072197;28;20234;-60
2022/12/04 14:56:35;;;;;;;5.05;3.67;;;;;;;;;;5072306;28;20123;-63
2022/12/04 14:59:06;;;;;;;4.35;3.42;;;;;;;;;;5072007;28;20025;-63
2022/12/04 15:01:37;;;;;;;4.57;3.92;;;;;;;;;;5072006;28;20036;-63
2022/12/04 15:04:26;;;;;;;8.55;3.60;;;;;;;;;;5071870;28;20048;-64
2022/12/04 15:06:53;;;;;;;4.53;3.50;;;;;;;;;;5071911;28;20020;-62
2022/12/04 15:15:01;;;;;;;6.40;4.18;;;;;;;;;;5071723;28;20124;-62
2022/12/04 15:17:26;;;;;;;5.47;4.10;;;;;;;;;;5071685;28;20471;-62
2022/12/04 15:19:52;;;;;;;6.60;3.78;;;;;;;;;;5051692;28;20090;-63
2022/12/04 15:22:26;;;;;;;5.90;3.67;;;;;;;;;;5051597;28;20104;-62
2022/12/04 15:24:53;;;;;;;3.97;3.53;;;;;;;;;;5051872;28;20099;-63
2022/12/04 15:27:21;;;;;;;4.22;3.83;;;;;;;;;;5050911;28;20025;-61